createdAt,value
2018-02-07T00:00:36.363Z,66.60
2018-02-07T00:01:37.435Z,66.60
2018-02-07T00:02:38.512Z,66.70
2018-02-07T00:03:39.579Z,66.60
2018-02-07T00:04:40.651Z,66.70
2018-02-07T00:05:41.751Z,66.70
2018-02-07T00:06:42.827Z,66.70
2018-02-07T00:07:43.907Z,66.50
2018-02-07T00:08:45.703Z,66.70
2018-02-07T00:09:46.923Z,66.60
2018-02-07T00:10:48.005Z,66.70
2018-02-07T00:11:49.423Z,66.70
2018-02-07T00:12:50.472Z,66.70
2018-02-07T00:13:51.539Z,66.70
2018-02-07T00:14:52.610Z,66.70
2018-02-07T00:15:53.711Z,66.70
2018-02-07T00:16:54.792Z,66.60
2018-02-07T00:17:55.858Z,66.60
2018-02-07T00:18:56.923Z,66.60
2018-02-07T00:19:57.979Z,66.60
2018-02-07T00:20:59.087Z,66.60
2018-02-07T00:22:00.160Z,66.70
2018-02-07T00:23:01.240Z,66.60
2018-02-07T00:24:03.047Z,66.60
2018-02-07T00:25:04.861Z,66.70
2018-02-07T00:26:05.950Z,66.60
2018-02-07T00:27:07.758Z,66.70
2018-02-07T00:28:08.863Z,66.70
2018-02-07T00:29:09.942Z,66.60
2018-02-07T00:30:11.763Z,66.70
2018-02-07T00:31:12.831Z,66.60
2018-02-07T00:32:14.645Z,66.70
2018-02-07T00:33:15.726Z,66.60
2018-02-07T00:34:16.807Z,66.60
2018-02-07T00:35:17.932Z,66.50
2018-02-07T00:36:18.990Z,66.60
2018-02-07T00:37:20.047Z,66.30
2018-02-07T00:38:21.140Z,66.50
2018-02-07T00:39:22.231Z,66.50
2018-02-07T00:40:23.305Z,66.50
2018-02-07T00:41:24.408Z,66.50
2018-02-07T00:42:25.514Z,66.60
2018-02-07T00:43:27.322Z,66.60
2018-02-07T00:44:28.547Z,66.60
2018-02-07T00:45:29.878Z,66.60
2018-02-07T00:46:30.963Z,66.60
2018-02-07T00:47:32.055Z,66.40
2018-02-07T00:48:33.154Z,66.60
2018-02-07T00:49:34.244Z,66.60
2018-02-07T00:50:35.337Z,66.60
2018-02-07T00:51:36.451Z,66.60
2018-02-07T00:52:37.516Z,66.60
2018-02-07T00:53:38.586Z,66.60
2018-02-07T00:54:40.400Z,66.60
2018-02-07T00:55:41.494Z,66.50
2018-02-07T00:56:42.583Z,66.60
2018-02-07T00:57:43.658Z,66.50
2018-02-07T00:58:44.720Z,66.50
2018-02-07T00:59:45.778Z,66.50
2018-02-07T01:00:46.876Z,66.50
2018-02-07T01:01:48.012Z,66.50
2018-02-07T01:02:49.832Z,66.50
2018-02-07T01:03:50.925Z,66.50
2018-02-07T01:04:51.995Z,66.60
2018-02-07T01:05:53.091Z,66.60
2018-02-07T01:06:54.168Z,66.50
2018-02-07T01:07:55.255Z,66.70
2018-02-07T01:08:56.322Z,66.50
2018-02-07T01:09:57.398Z,66.50
2018-02-07T01:10:58.474Z,66.50
2018-02-07T01:11:59.565Z,66.50
2018-02-07T01:13:00.638Z,66.50
2018-02-07T01:14:02.446Z,66.40
2018-02-07T01:15:03.519Z,66.40
2018-02-07T01:16:04.599Z,66.40
2018-02-07T01:17:05.708Z,66.40
2018-02-07T01:18:06.767Z,66.40
2018-02-07T01:19:07.854Z,66.30
2018-02-07T01:20:09.681Z,66.80
2018-02-07T01:21:10.771Z,66.80
2018-02-07T01:22:11.867Z,66.80
2018-02-07T01:23:12.959Z,66.80
2018-02-07T01:24:14.043Z,66.80
2018-02-07T01:25:15.839Z,66.80
2018-02-07T01:26:16.934Z,66.80
2018-02-07T01:27:18.035Z,67.00
2018-02-07T01:28:19.884Z,67.90
2018-02-07T01:29:20.966Z,67.00
2018-02-07T01:30:22.052Z,67.20
2018-02-07T01:31:23.878Z,67.40
2018-02-07T01:32:24.961Z,67.40
2018-02-07T01:33:26.026Z,67.50
2018-02-07T01:34:27.074Z,67.10
2018-02-07T01:35:28.168Z,67.00
2018-02-07T01:36:29.979Z,66.80
2018-02-07T01:37:31.793Z,66.90
2018-02-07T01:38:32.870Z,66.80
2018-02-07T01:39:34.698Z,66.50
2018-02-07T01:40:36.515Z,66.40
2018-02-07T01:41:37.600Z,66.40
2018-02-07T01:42:38.684Z,66.50
2018-02-07T01:43:39.753Z,66.50
2018-02-07T01:44:41.623Z,66.50
2018-02-07T01:45:42.700Z,66.40
2018-02-07T01:46:43.819Z,66.30
2018-02-07T01:47:44.902Z,66.50
2018-02-07T01:48:46.709Z,66.70
2018-02-07T01:49:47.775Z,66.40
2018-02-07T01:50:49.595Z,67.20
2018-02-07T01:51:50.663Z,66.50
2018-02-07T01:52:52.510Z,66.50
2018-02-07T01:53:54.331Z,66.40
2018-02-07T01:54:55.423Z,66.40
2018-02-07T01:55:56.511Z,66.40
2018-02-07T01:56:57.584Z,66.40
2018-02-07T01:57:58.683Z,66.40
2018-02-07T01:58:59.738Z,66.40
2018-02-07T02:00:00.812Z,66.30
2018-02-07T02:01:01.881Z,66.40
2018-02-07T02:02:03.709Z,66.40
2018-02-07T02:03:05.722Z,66.40
2018-02-07T02:04:06.803Z,66.40
2018-02-07T02:05:07.879Z,66.40
2018-02-07T02:06:08.970Z,66.40
2018-02-07T02:07:10.044Z,66.40
2018-02-07T02:08:11.147Z,66.40
2018-02-07T02:09:12.986Z,66.40
2018-02-07T02:10:14.038Z,66.30
2018-02-07T02:11:15.858Z,66.30
2018-02-07T02:12:16.918Z,66.30
2018-02-07T02:13:18.005Z,66.40
2018-02-07T02:14:19.087Z,66.30
2018-02-07T02:15:20.147Z,66.30
2018-02-07T02:16:21.228Z,66.30
2018-02-07T02:17:22.318Z,66.40
2018-02-07T02:18:23.395Z,66.50
2018-02-07T02:19:24.486Z,66.30
2018-02-07T02:20:25.575Z,66.30
2018-02-07T02:21:27.403Z,66.30
2018-02-07T02:22:28.466Z,66.30
2018-02-07T02:23:29.542Z,66.30
2018-02-07T02:24:30.616Z,66.30
2018-02-07T02:25:31.691Z,66.30
2018-02-07T02:26:32.766Z,66.60
2018-02-07T02:27:33.827Z,66.70
2018-02-07T02:28:34.916Z,66.80
2018-02-07T02:29:35.986Z,66.90
2018-02-07T02:30:37.816Z,67.80
2018-02-07T02:31:38.886Z,67.00
2018-02-07T02:32:39.967Z,67.00
2018-02-07T02:33:41.078Z,66.90
2018-02-07T02:34:42.153Z,66.90
2018-02-07T02:35:55.562Z,66.90
2018-02-07T02:36:56.635Z,66.90
2018-02-07T02:37:57.715Z,66.60
2018-02-07T02:38:58.784Z,66.50
2018-02-07T02:40:00.606Z,66.20
2018-02-07T02:41:01.670Z,66.20
2018-02-07T02:42:02.764Z,66.40
2018-02-07T02:43:03.842Z,66.20
2018-02-07T02:44:04.939Z,66.30
2018-02-07T02:45:06.023Z,66.40
2018-02-07T02:46:07.090Z,66.30
2018-02-07T02:47:08.163Z,66.40
2018-02-07T02:48:10.116Z,66.20
2018-02-07T02:49:11.207Z,66.20
2018-02-07T02:50:12.291Z,66.30
2018-02-07T02:51:13.392Z,66.40
2018-02-07T02:52:15.223Z,66.20
2018-02-07T02:53:16.305Z,66.20
2018-02-07T02:54:17.378Z,66.20
2018-02-07T02:55:18.452Z,66.30
2018-02-07T02:56:20.258Z,66.20
2018-02-07T02:57:21.343Z,66.30
2018-02-07T02:58:23.170Z,66.40
2018-02-07T02:59:24.988Z,66.50
2018-02-07T03:00:26.062Z,66.30
2018-02-07T03:01:27.162Z,66.30
2018-02-07T03:02:28.247Z,66.30
2018-02-07T03:03:29.318Z,66.20
2018-02-07T03:04:30.410Z,66.20
2018-02-07T03:05:32.243Z,66.20
2018-02-07T03:06:34.063Z,66.30
2018-02-07T03:07:35.140Z,66.20
2018-02-07T03:08:36.219Z,66.30
2018-02-07T03:09:37.295Z,66.20
2018-02-07T03:10:38.379Z,66.20
2018-02-07T03:11:39.449Z,66.20
2018-02-07T03:12:40.512Z,66.30
2018-02-07T03:13:41.612Z,66.20
2018-02-07T03:14:42.675Z,66.30
2018-02-07T03:15:43.750Z,66.30
2018-02-07T03:16:44.840Z,66.30
2018-02-07T03:17:45.919Z,66.30
2018-02-07T03:18:46.991Z,66.20
2018-02-07T03:19:48.098Z,66.30
2018-02-07T03:20:49.181Z,66.30
2018-02-07T03:21:50.246Z,66.20
2018-02-07T03:22:51.354Z,66.30
2018-02-07T03:23:52.435Z,66.50
2018-02-07T03:24:53.539Z,66.60
2018-02-07T03:25:54.604Z,66.60
2018-02-07T03:26:56.428Z,66.80
2018-02-07T03:27:57.486Z,66.80
2018-02-07T03:28:59.302Z,67.00
2018-02-07T03:30:00.436Z,67.00
2018-02-07T03:31:01.469Z,67.00
2018-02-07T03:32:02.568Z,67.20
2018-02-07T03:33:03.672Z,67.00
2018-02-07T03:34:04.766Z,67.10
2018-02-07T03:35:05.831Z,67.00
2018-02-07T03:36:07.643Z,67.00
2018-02-07T03:37:08.747Z,67.00
2018-02-07T03:38:09.823Z,67.00
2018-02-07T03:39:10.923Z,67.10
2018-02-07T03:40:12.000Z,66.90
2018-02-07T03:41:13.073Z,67.00
2018-02-07T03:42:14.184Z,66.90
2018-02-07T03:43:15.263Z,66.90
2018-02-07T03:44:16.339Z,66.80
2018-02-07T03:45:17.427Z,66.90
2018-02-07T03:46:18.508Z,67.00
2018-02-07T03:47:20.315Z,67.20
2018-02-07T03:48:21.375Z,67.10
2018-02-07T03:49:22.438Z,67.20
2018-02-07T03:50:24.293Z,67.20
2018-02-07T03:51:25.381Z,67.30
2018-02-07T03:52:26.455Z,67.50
2018-02-07T03:53:27.536Z,67.40
2018-02-07T03:54:28.586Z,67.50
2018-02-07T03:55:29.676Z,67.50
2018-02-07T03:56:30.738Z,67.50
2018-02-07T03:57:31.787Z,67.50
2018-02-07T03:58:32.850Z,67.40
2018-02-07T03:59:33.923Z,67.50
2018-02-07T04:00:34.979Z,67.60
2018-02-07T04:01:36.039Z,67.60
2018-02-07T04:02:37.123Z,67.50
2018-02-07T04:03:38.189Z,67.30
2018-02-07T04:04:39.275Z,67.30
2018-02-07T04:05:40.339Z,67.20
2018-02-07T04:06:42.205Z,67.40
2018-02-07T04:07:44.004Z,67.30
2018-02-07T04:08:45.055Z,67.20
2018-02-07T04:09:46.115Z,67.20
2018-02-07T04:10:47.934Z,67.20
2018-02-07T04:11:48.996Z,67.20
2018-02-07T04:12:50.818Z,67.20
2018-02-07T04:13:51.886Z,67.20
2018-02-07T04:14:53.685Z,67.40
2018-02-07T04:15:54.763Z,67.40
2018-02-07T04:16:56.563Z,67.30
2018-02-07T04:17:57.628Z,67.30
2018-02-07T04:18:58.714Z,67.40
2018-02-07T04:20:00.511Z,67.30
2018-02-07T04:21:01.600Z,67.30
2018-02-07T04:22:02.654Z,67.40
2018-02-07T04:23:03.734Z,67.50
2018-02-07T04:24:04.834Z,67.60
2018-02-07T04:25:06.651Z,67.50
2018-02-07T04:26:07.751Z,67.50
2018-02-07T04:27:08.826Z,67.50
2018-02-07T04:28:09.896Z,67.50
2018-02-07T04:29:11.707Z,67.30
2018-02-07T04:30:12.762Z,67.30
2018-02-07T04:31:13.851Z,67.20
2018-02-07T04:32:14.920Z,67.40
2018-02-07T04:33:16.673Z,67.10
2018-02-07T04:34:18.498Z,67.30
2018-02-07T04:35:19.573Z,67.20
2018-02-07T04:36:20.630Z,67.20
2018-02-07T04:37:21.711Z,67.00
2018-02-07T04:38:22.819Z,66.90
2018-02-07T04:39:23.854Z,67.00
2018-02-07T04:40:24.907Z,66.70
2018-02-07T04:41:25.963Z,66.90
2018-02-07T04:42:27.016Z,67.00
2018-02-07T04:43:28.083Z,66.80
2018-02-07T04:44:29.155Z,66.80
2018-02-07T04:45:30.962Z,66.90
2018-02-07T04:46:32.066Z,66.90
2018-02-07T04:47:33.115Z,66.90
2018-02-07T04:48:34.186Z,67.00
2018-02-07T04:49:35.247Z,67.00
2018-02-07T04:50:36.322Z,67.40
2018-02-07T04:51:37.379Z,67.80
2018-02-07T04:52:38.433Z,67.00
2018-02-07T04:53:39.491Z,66.60
2018-02-07T04:54:40.558Z,67.80
2018-02-07T04:55:41.630Z,67.90
2018-02-07T04:56:42.689Z,66.90
2018-02-07T04:57:43.768Z,67.00
2018-02-07T04:58:44.838Z,66.70
2018-02-07T04:59:45.977Z,66.10
2018-02-07T05:00:47.062Z,67.50
2018-02-07T05:01:50.735Z,65.90
2018-02-07T05:02:52.065Z,65.90
2018-02-07T05:03:53.176Z,66.20
2018-02-07T05:04:54.986Z,66.10
2018-02-07T05:05:56.059Z,66.10
2018-02-07T05:06:57.507Z,66.40
2018-02-07T05:07:58.580Z,66.30
2018-02-07T05:08:59.659Z,66.30
2018-02-07T05:10:00.749Z,66.50
2018-02-07T05:11:01.903Z,66.40
2018-02-07T05:12:03.739Z,66.20
2018-02-07T05:13:06.463Z,66.20
2018-02-07T05:14:08.258Z,66.20
2018-02-07T05:15:09.350Z,66.20
2018-02-07T05:16:11.143Z,66.10
2018-02-07T05:17:12.211Z,66.10
2018-02-07T05:18:13.279Z,66.30
2018-02-07T05:19:14.349Z,66.40
2018-02-07T05:20:15.426Z,66.40
2018-02-07T05:21:16.491Z,66.40
2018-02-07T05:22:17.567Z,66.70
2018-02-07T05:23:18.638Z,66.70
2018-02-07T05:24:19.694Z,66.60
2018-02-07T05:25:21.503Z,66.50
2018-02-07T05:26:22.571Z,66.50
2018-02-07T05:27:23.659Z,66.50
2018-02-07T05:28:24.751Z,66.60
2018-02-07T05:29:26.555Z,66.30
2018-02-07T05:30:27.623Z,66.30
2018-02-07T05:31:29.438Z,66.60
2018-02-07T05:32:30.519Z,66.50
2018-02-07T05:33:32.366Z,66.30
2018-02-07T05:34:33.391Z,66.20
2018-02-07T05:35:35.203Z,65.80
2018-02-07T05:36:36.303Z,65.80
2018-02-07T05:37:37.382Z,65.80
2018-02-07T05:38:38.451Z,66.40
2018-02-07T05:39:40.259Z,66.50
2018-02-07T05:40:41.363Z,66.50
2018-02-07T05:41:42.463Z,66.50
2018-02-07T05:42:43.555Z,66.10
2018-02-07T05:43:44.631Z,66.80
2018-02-07T05:44:45.708Z,66.60
2018-02-07T05:45:46.819Z,66.20
2018-02-07T05:46:47.920Z,65.80
2018-02-07T05:47:49.746Z,65.90
2018-02-07T05:48:50.807Z,65.90
2018-02-07T05:49:51.907Z,66.10
2018-02-07T05:50:52.975Z,66.10
2018-02-07T05:51:54.060Z,66.10
2018-02-07T05:52:55.142Z,66.20
2018-02-07T05:53:56.207Z,66.30
2018-02-07T05:54:57.312Z,66.40
2018-02-07T05:55:58.394Z,66.60
2018-02-07T05:56:59.487Z,66.40
2018-02-07T05:58:00.592Z,66.50
2018-02-07T05:59:02.419Z,66.40
2018-02-07T06:00:03.532Z,66.30
2018-02-07T06:01:04.669Z,66.20
2018-02-07T06:02:05.732Z,66.20
2018-02-07T06:03:06.852Z,66.10
2018-02-07T06:04:07.988Z,66.10
2018-02-07T06:05:09.079Z,66.40
2018-02-07T06:06:10.192Z,67.00
2018-02-07T06:07:11.288Z,66.50
2018-02-07T06:08:12.352Z,66.10
2018-02-07T06:09:14.181Z,66.20
2018-02-07T06:10:16.007Z,66.20
2018-02-07T06:11:17.091Z,66.10
2018-02-07T06:12:18.199Z,66.20
2018-02-07T06:13:19.326Z,66.30
2018-02-07T06:14:21.835Z,66.10
2018-02-07T06:15:23.060Z,66.10
2018-02-07T06:16:24.195Z,66.20
2018-02-07T06:17:25.310Z,66.30
2018-02-07T06:18:27.124Z,66.50
2018-02-07T06:19:28.179Z,66.50
2018-02-07T06:20:29.998Z,66.70
2018-02-07T06:21:32.571Z,66.60
2018-02-07T06:22:35.315Z,67.20
2018-02-07T06:23:36.402Z,66.80
2018-02-07T06:24:38.238Z,67.00
2018-02-07T06:25:40.125Z,66.90
2018-02-07T06:26:41.207Z,67.70
2018-02-07T06:27:42.267Z,67.00
2018-02-07T06:28:44.092Z,67.10
2018-02-07T06:29:45.245Z,67.10
2018-02-07T06:30:47.070Z,67.20
2018-02-07T06:31:48.776Z,67.10
2018-02-07T06:32:49.845Z,67.20
2018-02-07T06:33:50.962Z,68.00
2018-02-07T06:34:52.039Z,68.30
2018-02-07T06:35:53.152Z,67.50
2018-02-07T06:36:54.237Z,67.20
2018-02-07T06:37:55.327Z,67.00
2018-02-07T06:38:56.424Z,66.90
2018-02-07T06:39:57.507Z,66.90
2018-02-07T06:40:58.607Z,66.90
2018-02-07T06:41:59.658Z,66.90
2018-02-07T06:43:00.723Z,67.50
2018-02-07T06:44:01.809Z,67.10
2018-02-07T06:45:02.918Z,67.00
2018-02-07T06:46:04.024Z,67.00
2018-02-07T06:47:05.100Z,66.90
2018-02-07T06:48:06.176Z,66.90
2018-02-07T06:49:07.308Z,67.00
2018-02-07T06:50:09.094Z,66.90
2018-02-07T06:51:10.168Z,66.90
2018-02-07T06:52:11.262Z,66.90
2018-02-07T06:53:12.367Z,66.80
2018-02-07T06:54:13.459Z,67.00
2018-02-07T06:55:14.594Z,67.60
2018-02-07T06:56:15.669Z,67.00
2018-02-07T06:57:16.739Z,67.00
2018-02-07T06:58:17.823Z,66.80
2018-02-07T06:59:18.954Z,66.90
2018-02-07T07:00:20.092Z,66.80
2018-02-07T07:01:21.150Z,66.90
2018-02-07T07:02:22.210Z,66.70
2018-02-07T07:03:23.277Z,67.30
2018-02-07T07:04:24.350Z,66.80
2018-02-07T07:05:25.410Z,67.00
2018-02-07T07:06:26.478Z,67.50
2018-02-07T07:07:28.302Z,66.70
2018-02-07T07:08:29.371Z,66.70
2018-02-07T07:09:30.447Z,66.60
2018-02-07T07:10:31.497Z,66.90
2018-02-07T07:11:32.558Z,66.90
2018-02-07T07:12:33.636Z,66.90
2018-02-07T07:13:34.709Z,67.10
2018-02-07T07:14:36.507Z,67.00
2018-02-07T07:15:37.596Z,67.00
2018-02-07T07:16:38.681Z,67.00
2018-02-07T07:17:39.772Z,67.10
2018-02-07T07:18:40.842Z,66.80
2018-02-07T07:19:41.926Z,66.80
2018-02-07T07:20:43.739Z,66.90
2018-02-07T07:21:44.805Z,66.90
2018-02-07T07:22:45.879Z,66.60
2018-02-07T07:23:46.935Z,66.80
2018-02-07T07:24:48.063Z,66.90
2018-02-07T07:25:49.120Z,67.00
2018-02-07T07:26:50.174Z,66.70
2018-02-07T07:27:51.971Z,66.40
2018-02-07T07:28:53.028Z,66.40
2018-02-07T07:29:54.100Z,66.40
2018-02-07T07:30:55.169Z,66.20
2018-02-07T07:31:56.319Z,65.90
2018-02-07T07:32:57.482Z,66.00
2018-02-07T07:33:59.304Z,65.90
2018-02-07T07:35:00.363Z,66.10
2018-02-07T07:36:02.188Z,66.00
2018-02-07T07:37:03.287Z,66.10
2018-02-07T07:38:04.359Z,66.00
2018-02-07T07:39:05.410Z,66.00
2018-02-07T07:40:06.519Z,66.00
2018-02-07T07:41:08.342Z,66.20
2018-02-07T07:42:09.425Z,66.00
2018-02-07T07:43:10.479Z,66.30
2018-02-07T07:44:11.580Z,66.30
2018-02-07T07:45:12.679Z,66.50
2018-02-07T07:46:13.785Z,66.60
2018-02-07T07:47:14.855Z,66.80
2018-02-07T07:48:15.923Z,66.80
2018-02-07T07:49:16.998Z,66.30
2018-02-07T07:50:18.088Z,65.90
2018-02-07T07:51:19.192Z,65.80
2018-02-07T07:52:20.279Z,66.00
2018-02-07T07:53:21.642Z,66.40
2018-02-07T07:54:23.551Z,66.20
2018-02-07T07:55:24.643Z,66.30
2018-02-07T07:56:25.743Z,66.20
2018-02-07T07:57:26.834Z,66.20
2018-02-07T07:58:27.910Z,65.90
2018-02-07T07:59:29.011Z,65.90
2018-02-07T08:00:30.126Z,65.90
2018-02-07T08:01:31.215Z,65.90
2018-02-07T08:02:32.379Z,65.90
2018-02-07T08:03:34.206Z,66.00
2018-02-07T08:04:35.307Z,66.80
2018-02-07T08:05:36.403Z,66.00
2018-02-07T08:06:37.496Z,66.00
2018-02-07T08:07:38.585Z,66.10
2018-02-07T08:08:39.670Z,66.10
2018-02-07T08:09:40.782Z,66.10
2018-02-07T08:10:41.891Z,66.10
2018-02-07T08:11:42.991Z,66.10
2018-02-07T08:12:44.835Z,66.10
2018-02-07T08:13:46.663Z,66.10
2018-02-07T08:14:47.784Z,66.10
2018-02-07T08:15:49.733Z,65.80
2018-02-07T08:16:50.823Z,65.70
2018-02-07T08:17:52.861Z,65.70
2018-02-07T08:18:54.747Z,66.20
2018-02-07T08:19:55.866Z,66.10
2018-02-07T08:20:56.951Z,66.10
2018-02-07T08:21:58.035Z,66.10
2018-02-07T08:22:59.110Z,65.80
2018-02-07T08:24:00.200Z,65.80
2018-02-07T08:25:01.292Z,65.80
2018-02-07T08:26:02.422Z,65.70
2018-02-07T08:27:03.532Z,65.50
2018-02-07T08:28:04.615Z,65.50
2018-02-07T08:29:05.719Z,65.40
2018-02-07T08:30:06.834Z,65.20
2018-02-07T08:31:07.959Z,65.20
2018-02-07T08:32:09.071Z,65.20
2018-02-07T08:33:10.155Z,65.40
2018-02-07T08:34:11.248Z,65.40
2018-02-07T08:35:12.334Z,65.40
2018-02-07T08:36:14.176Z,65.30
2018-02-07T08:37:16.034Z,65.20
2018-02-07T08:38:17.131Z,65.20
2018-02-07T08:39:18.235Z,64.90
2018-02-07T08:40:19.543Z,64.90
2018-02-07T08:41:20.717Z,64.60
2018-02-07T08:42:21.871Z,64.70
2018-02-07T08:43:22.951Z,64.70
2018-02-07T08:44:24.034Z,64.50
2018-02-07T08:45:25.133Z,64.40
2018-02-07T08:46:26.250Z,64.30
2018-02-07T08:47:28.102Z,64.20
2018-02-07T08:48:29.199Z,64.20
2018-02-07T08:49:30.294Z,64.30
2018-02-07T08:50:31.375Z,64.30
2018-02-07T08:51:32.492Z,64.50
2018-02-07T08:52:33.598Z,64.50
2018-02-07T08:53:34.710Z,64.40
2018-02-07T08:54:35.794Z,64.50
2018-02-07T08:55:36.891Z,64.30
2018-02-07T08:56:38.003Z,64.40
2018-02-07T08:57:39.109Z,64.30
2018-02-07T08:58:40.219Z,64.40
2018-02-07T08:59:41.298Z,64.40
2018-02-07T09:00:42.391Z,64.30
2018-02-07T09:01:43.518Z,64.30
2018-02-07T09:02:44.628Z,64.30
2018-02-07T09:03:45.739Z,64.20
2018-02-07T09:04:46.842Z,64.40
2018-02-07T09:05:48.679Z,64.60
2018-02-07T09:06:49.803Z,64.50
2018-02-07T09:07:50.920Z,64.30
2018-02-07T09:08:52.084Z,64.30
2018-02-07T09:09:53.182Z,64.40
2018-02-07T09:10:54.307Z,64.60
2018-02-07T09:11:55.423Z,64.70
2018-02-07T09:12:56.543Z,64.90
2018-02-07T09:13:58.370Z,65.00
2018-02-07T09:14:59.496Z,65.00
2018-02-07T09:16:00.619Z,65.10
2018-02-07T09:17:01.759Z,64.80
2018-02-07T09:18:02.891Z,64.90
2018-02-07T09:19:04.006Z,64.50
2018-02-07T09:20:05.127Z,64.50
2018-02-07T09:21:06.231Z,64.50
2018-02-07T09:22:07.319Z,64.50
2018-02-07T09:23:08.441Z,64.20
2018-02-07T09:24:09.567Z,64.00
2018-02-07T09:25:10.701Z,63.80
2018-02-07T09:26:11.811Z,63.70
2018-02-07T09:27:13.687Z,63.70
2018-02-07T09:28:14.790Z,63.80
2018-02-07T09:29:15.927Z,63.20
2018-02-07T09:30:17.021Z,63.30
2018-02-07T09:31:18.863Z,63.70
2018-02-07T09:32:19.983Z,63.60
2018-02-07T09:33:21.107Z,63.60
2018-02-07T09:34:22.197Z,63.60
2018-02-07T09:35:23.307Z,63.40
2018-02-07T09:36:24.404Z,63.30
2018-02-07T09:37:25.539Z,63.30
2018-02-07T09:38:26.638Z,63.20
2018-02-07T09:39:28.466Z,63.30
2018-02-07T09:40:29.591Z,63.30
2018-02-07T09:41:31.428Z,63.00
2018-02-07T09:42:33.276Z,63.20
2018-02-07T09:43:35.126Z,63.80
2018-02-07T09:44:36.246Z,63.00
2018-02-07T09:45:37.352Z,63.10
2018-02-07T09:46:38.467Z,63.20
2018-02-07T09:47:39.580Z,63.00
2018-02-07T09:48:40.654Z,62.80
2018-02-07T09:49:41.724Z,62.70
2018-02-07T09:50:43.568Z,62.70
2018-02-07T09:51:44.717Z,62.70
2018-02-07T09:52:45.806Z,62.50
2018-02-07T09:53:46.942Z,62.50
2018-02-07T09:54:48.071Z,62.60
2018-02-07T09:55:49.157Z,62.60
2018-02-07T09:56:50.259Z,62.60
2018-02-07T09:57:51.410Z,62.60
2018-02-07T09:58:52.533Z,62.60
2018-02-07T09:59:53.630Z,62.80
2018-02-07T10:00:54.746Z,62.60
2018-02-07T10:01:55.891Z,62.60
2018-02-07T10:02:57.011Z,62.60
2018-02-07T10:03:58.094Z,62.60
2018-02-07T10:04:59.195Z,62.30
2018-02-07T10:06:00.287Z,62.10
2018-02-07T10:07:01.407Z,62.00
2018-02-07T10:08:03.263Z,62.00
2018-02-07T10:09:04.354Z,62.00
2018-02-07T10:10:05.486Z,61.90
2018-02-07T10:11:06.594Z,61.90
2018-02-07T10:12:07.687Z,61.90
2018-02-07T10:13:08.812Z,61.80
2018-02-07T10:14:09.914Z,61.90
2018-02-07T10:15:11.029Z,61.70
2018-02-07T10:16:12.119Z,62.10
2018-02-07T10:17:13.202Z,62.00
2018-02-07T10:18:14.296Z,62.00
2018-02-07T10:19:15.396Z,61.90
2018-02-07T10:20:16.497Z,61.80
2018-02-07T10:21:17.633Z,61.90
2018-02-07T10:22:18.728Z,62.10
2018-02-07T10:23:19.838Z,61.90
2018-02-07T10:24:20.936Z,61.80
2018-02-07T10:25:22.028Z,61.70
2018-02-07T10:26:23.126Z,61.20
2018-02-07T10:27:24.221Z,61.30
2018-02-07T10:28:25.314Z,61.30
2018-02-07T10:29:27.160Z,61.70
2018-02-07T10:30:28.251Z,61.70
2018-02-07T10:31:29.363Z,61.40
2018-02-07T10:32:30.511Z,61.00
2018-02-07T10:33:31.611Z,60.70
2018-02-07T10:34:32.690Z,60.50
2018-02-07T10:35:33.771Z,60.60
2018-02-07T10:36:34.843Z,60.40
2018-02-07T10:37:35.939Z,60.30
2018-02-07T10:38:37.044Z,60.60
2018-02-07T10:39:38.156Z,61.20
2018-02-07T10:40:39.248Z,60.70
2018-02-07T10:41:40.352Z,60.50
2018-02-07T10:42:41.426Z,61.20
2018-02-07T10:43:42.517Z,61.00
2018-02-07T10:44:44.356Z,60.70
2018-02-07T10:45:45.447Z,60.70
2018-02-07T10:46:46.543Z,60.70
2018-02-07T10:47:47.639Z,60.70
2018-02-07T10:48:48.756Z,60.80
2018-02-07T10:49:49.860Z,60.60
2018-02-07T10:50:50.973Z,60.90
2018-02-07T10:51:52.064Z,60.70
2018-02-07T10:52:53.151Z,61.10
2018-02-07T10:53:54.256Z,61.10
2018-02-07T10:54:55.340Z,60.90
2018-02-07T10:55:56.444Z,60.60
2018-02-07T10:56:57.591Z,60.80
2018-02-07T10:57:58.692Z,61.00
2018-02-07T10:58:59.799Z,60.80
2018-02-07T11:00:00.882Z,60.90
2018-02-07T11:01:02.002Z,60.50
2018-02-07T11:02:03.123Z,60.40
2018-02-07T11:03:04.255Z,60.30
2018-02-07T11:04:06.142Z,60.70
2018-02-07T11:05:07.251Z,60.70
2018-02-07T11:06:09.071Z,60.50
2018-02-07T11:07:10.231Z,60.50
2018-02-07T11:08:11.282Z,60.10
2018-02-07T11:09:12.398Z,59.80
2018-02-07T11:10:13.521Z,59.70
2018-02-07T11:11:14.606Z,59.40
2018-02-07T11:12:15.694Z,59.90
2018-02-07T11:13:16.787Z,59.60
2018-02-07T11:14:17.955Z,59.70
2018-02-07T11:15:19.027Z,60.30
2018-02-07T11:16:20.132Z,60.00
2018-02-07T11:17:21.964Z,60.00
2018-02-07T11:18:23.138Z,60.00
2018-02-07T11:19:24.259Z,60.00
2018-02-07T11:20:25.364Z,60.40
2018-02-07T11:21:26.458Z,60.30
2018-02-07T11:22:27.546Z,60.40
2018-02-07T11:23:29.367Z,60.40
2018-02-07T11:24:30.530Z,60.30
2018-02-07T11:25:31.619Z,60.50
2018-02-07T11:26:32.738Z,60.80
2018-02-07T11:27:33.815Z,61.10
2018-02-07T11:28:35.660Z,61.10
2018-02-07T11:29:36.795Z,61.10
2018-02-07T11:30:38.650Z,61.30
2018-02-07T11:31:39.755Z,61.30
2018-02-07T11:32:40.839Z,61.00
2018-02-07T11:33:41.946Z,60.80
2018-02-07T11:34:43.051Z,60.80
2018-02-07T11:35:44.131Z,60.60
2018-02-07T11:36:45.950Z,60.90
2018-02-07T11:37:47.055Z,61.00
2018-02-07T11:38:48.159Z,60.60
2018-02-07T11:39:49.281Z,60.40
2018-02-07T11:40:50.387Z,60.60
2018-02-07T11:41:51.481Z,60.70
2018-02-07T11:42:52.576Z,60.60
2018-02-07T11:43:53.684Z,60.80
2018-02-07T11:44:54.824Z,60.60
2018-02-07T11:45:56.668Z,60.20
2018-02-07T11:46:57.762Z,60.80
2018-02-07T11:47:58.903Z,60.90
2018-02-07T11:48:59.989Z,60.60
2018-02-07T11:50:01.120Z,60.80
2018-02-07T11:51:02.232Z,60.60
2018-02-07T11:52:03.321Z,60.70
2018-02-07T11:53:04.552Z,60.60
2018-02-07T11:54:05.659Z,60.50
2018-02-07T11:55:06.773Z,60.50
2018-02-07T11:56:08.684Z,60.20
2018-02-07T11:57:09.823Z,60.20
2018-02-07T11:58:10.920Z,60.00
2018-02-07T11:59:12.016Z,60.10
2018-02-07T12:00:13.156Z,60.00
2018-02-07T12:01:15.006Z,59.90
2018-02-07T12:02:16.099Z,59.90
2018-02-07T12:03:17.227Z,59.80
2018-02-07T12:04:18.328Z,59.80
2018-02-07T12:05:19.451Z,59.50
2018-02-07T12:06:20.559Z,60.40
2018-02-07T12:07:21.657Z,60.20
2018-02-07T12:08:22.736Z,59.50
2018-02-07T12:09:23.887Z,59.70
2018-02-07T12:10:25.007Z,59.80
2018-02-07T12:11:26.838Z,59.90
2018-02-07T12:12:27.923Z,59.80
2018-02-07T12:13:29.033Z,60.40
2018-02-07T12:14:30.139Z,59.00
2018-02-07T12:15:31.239Z,59.00
2018-02-07T12:16:32.339Z,59.20
2018-02-07T12:17:33.438Z,59.00
2018-02-07T12:18:34.526Z,58.80
2018-02-07T12:19:35.609Z,59.00
2018-02-07T12:20:37.450Z,60.50
2018-02-07T12:21:39.294Z,59.60
2018-02-07T12:22:40.406Z,59.60
2018-02-07T12:23:41.515Z,59.40
2018-02-07T12:24:42.608Z,59.40
2018-02-07T12:25:43.741Z,59.50
2018-02-07T12:26:44.856Z,59.90
2018-02-07T12:27:45.966Z,60.10
2018-02-07T12:28:47.043Z,61.10
2018-02-07T12:29:48.892Z,60.90
2018-02-07T12:30:50.031Z,60.90
2018-02-07T12:31:51.883Z,61.50
2018-02-07T12:32:52.979Z,61.50
2018-02-07T12:33:54.191Z,61.40
2018-02-07T12:34:55.299Z,61.60
2018-02-07T12:35:56.403Z,61.40
2018-02-07T12:36:57.546Z,60.90
2018-02-07T12:37:58.679Z,61.00
2018-02-07T12:38:59.810Z,60.70
2018-02-07T12:40:01.011Z,61.00
2018-02-07T12:41:02.092Z,61.20
2018-02-07T12:42:03.204Z,61.20
2018-02-07T12:43:04.303Z,61.40
2018-02-07T12:44:05.407Z,61.30
2018-02-07T12:45:06.507Z,61.30
2018-02-07T12:46:07.636Z,61.00
2018-02-07T12:47:08.737Z,60.80
2018-02-07T12:48:09.806Z,60.70
2018-02-07T12:49:11.648Z,60.10
2018-02-07T12:50:13.496Z,60.00
2018-02-07T12:51:14.611Z,60.00
2018-02-07T12:52:15.711Z,60.00
2018-02-07T12:53:16.811Z,60.10
2018-02-07T12:54:18.648Z,60.10
2018-02-07T12:55:19.739Z,60.10
2018-02-07T12:56:20.851Z,60.00
2018-02-07T12:57:21.942Z,60.10
2018-02-07T12:58:23.097Z,60.10
2018-02-07T12:59:24.200Z,60.00
2018-02-07T13:00:25.290Z,60.00
2018-02-07T13:01:26.387Z,60.20
2018-02-07T13:02:28.214Z,60.70
2018-02-07T13:03:29.310Z,60.70
2018-02-07T13:04:30.411Z,60.80
2018-02-07T13:05:32.246Z,61.00
2018-02-07T13:06:34.103Z,61.10
2018-02-07T13:07:35.207Z,61.20
2018-02-07T13:08:36.291Z,61.50